Time;durP1;ratioP1;P1;durP2;ratioP2;P2;SDS_P1;SDS_P2;PMS_P1;PMS_P2;Temp;Humidity;BMP_temperature;BMP_pressure;BME280_temperature;BME280_humidity;BME280_pressure;Samples;Min_cycle;Max_cycle;Signal;HPM_P1;HPM_P2
2022/07/30 00:01:05;;;;;;;9.63;5.97;;;19.40;99.90;;;;;;5095154;28;20522;-84
2022/07/30 00:03:34;;;;;;;5.83;4.93;;;19.40;99.90;;;;;;5095354;28;20493;-85
2022/07/30 00:06:01;;;;;;;6.20;4.40;;;19.30;99.90;;;;;;5095642;28;20451;-85
2022/07/30 00:08:28;;;;;;;9.67;5.17;;;19.30;99.90;;;;;;5095927;28;20471;-84
2022/07/30 00:10:55;;;;;;;6.50;4.80;;;19.30;99.90;;;;;;5095363;28;20457;-84
2022/07/30 00:13:21;;;;;;;12.73;5.10;;;19.20;99.90;;;;;;5094945;28;20439;-85
2022/07/30 00:15:48;;;;;;;10.77;5.13;;;19.20;99.90;;;;;;5095117;28;20451;-85
2022/07/30 00:18:15;;;;;;;6.20;4.83;;;19.10;99.90;;;;;;5095608;28;20482;-85
2022/07/30 00:20:43;;;;;;;7.00;4.93;;;19.10;99.90;;;;;;5095753;28;20446;-85
2022/07/30 00:23:10;;;;;;;9.53;4.87;;;19.00;99.90;;;;;;5094301;28;21009;-84
2022/07/30 00:25:37;;;;;;;6.77;5.37;;;18.90;99.90;;;;;;5094926;28;20466;-84
2022/07/30 00:28:04;;;;;;;9.20;4.77;;;18.90;99.90;;;;;;5094741;28;20470;-84
2022/07/30 00:30:31;;;;;;;9.57;5.17;;;18.90;99.90;;;;;;5094744;28;20447;-83
2022/07/30 00:32:58;;;;;;;7.20;5.10;;;18.80;99.90;;;;;;5094475;28;20466;-84
2022/07/30 00:35:25;;;;;;;6.03;4.80;;;18.80;99.90;;;;;;5095476;28;20438;-84
2022/07/30 00:37:53;;;;;;;7.00;4.97;;;18.70;99.90;;;;;;5095162;28;20480;-85
2022/07/30 00:40:20;;;;;;;7.90;5.13;;;18.70;99.90;;;;;;5094640;28;20442;-85
2022/07/30 00:42:48;;;;;;;6.77;4.27;;;18.60;99.90;;;;;;5094909;28;20485;-84
2022/07/30 00:45:16;;;;;;;6.40;5.07;;;18.60;99.90;;;;;;5094818;28;20456;-85
2022/07/30 00:47:43;;;;;;;7.97;4.90;;;18.60;99.90;;;;;;5094585;28;20471;-84
2022/07/30 00:50:12;;;;;;;7.80;4.50;;;18.50;99.90;;;;;;5094894;28;20462;-85
2022/07/30 00:52:40;;;;;;;6.67;4.30;;;18.50;99.90;;;;;;5094654;28;20456;-85
2022/07/30 00:55:11;;;;;;;7.07;5.47;;;18.50;99.90;;;;;;5094097;28;20467;-85
2022/07/30 00:57:39;;;;;;;6.00;4.80;;;18.50;99.90;;;;;;5094819;28;20472;-84
2022/07/30 01:00:08;;;;;;;7.10;5.70;;;18.40;99.90;;;;;;5083045;28;20560;-84
2022/07/30 01:02:35;;;;;;;6.03;5.40;;;18.40;99.90;;;;;;5077372;28;20489;-84
2022/07/30 01:05:02;;;;;;;7.17;4.47;;;18.30;99.90;;;;;;5070347;28;20483;-84
2022/07/30 01:07:29;;;;;;;9.03;4.73;;;18.30;99.90;;;;;;5079927;28;20480;-84
2022/07/30 01:09:56;;;;;;;6.50;4.97;;;18.20;99.90;;;;;;5080772;28;20453;-86
2022/07/30 01:12:26;;;;;;;9.90;5.57;;;18.20;99.90;;;;;;5080609;28;20505;-84
2022/07/30 01:14:55;;;;;;;7.77;5.07;;;18.20;99.90;;;;;;5087748;28;20485;-85
2022/07/30 01:17:22;;;;;;;7.97;4.77;;;18.10;99.90;;;;;;5082578;28;20449;-84
2022/07/30 01:19:51;;;;;;;7.50;4.60;;;18.10;99.90;;;;;;5082300;28;20517;-84
2022/07/30 01:22:28;;;;;;;7.73;4.80;;;18.10;99.90;;;;;;5081845;28;20479;-83
2022/07/30 01:25:01;;;;;;;10.10;6.03;;;18.00;99.90;;;;;;5081795;28;20433;-85
2022/07/30 01:27:33;;;;;;;7.50;5.30;;;18.00;99.90;;;;;;5081516;28;20496;-84
2022/07/30 01:30:02;;;;;;;7.33;5.40;;;18.00;99.90;;;;;;5081446;28;20851;-84
2022/07/30 01:32:30;;;;;;;6.47;5.10;;;18.00;99.90;;;;;;5080131;28;20488;-84
2022/07/30 01:35:00;;;;;;;5.83;4.83;;;18.00;99.90;;;;;;5079448;28;20484;-83
2022/07/30 01:37:29;;;;;;;7.83;5.00;;;17.90;99.90;;;;;;5079681;28;20479;-85
2022/07/30 01:39:56;;;;;;;7.60;5.00;;;17.90;99.90;;;;;;5078892;28;20456;-84
2022/07/30 01:42:25;;;;;;;8.27;5.30;;;17.90;99.90;;;;;;5079013;28;20549;-84
2022/07/30 01:44:55;;;;;;;7.73;4.93;;;17.80;99.90;;;;;;5075728;28;21048;-83
2022/07/30 01:47:24;;;;;;;6.87;5.50;;;17.80;99.90;;;;;;5053220;28;20541;-83
2022/07/30 01:49:53;;;;;;;6.10;5.37;;;17.70;99.90;;;;;;5053323;28;20473;-83
2022/07/30 01:52:22;;;;;;;6.27;5.07;;;17.70;99.90;;;;;;5073215;28;20530;-83
2022/07/30 01:54:52;;;;;;;7.60;4.27;;;17.70;99.90;;;;;;5075887;28;20491;-83
2022/07/30 01:57:20;;;;;;;7.63;5.37;;;17.60;99.90;;;;;;5076124;28;21003;-82
2022/07/30 01:59:50;;;;;;;6.60;5.80;;;17.60;99.90;;;;;;5076513;28;20449;-83
2022/07/30 02:02:19;;;;;;;8.80;4.67;;;17.60;99.90;;;;;;5076141;28;20484;-83
2022/07/30 02:04:46;;;;;;;8.17;5.37;;;17.50;99.90;;;;;;5075640;28;20538;-83
2022/07/30 02:07:18;;;;;;;7.73;5.60;;;17.50;99.90;;;;;;5077526;28;20462;-83
2022/07/30 02:09:53;;;;;;;7.03;5.47;;;17.40;99.90;;;;;;5076505;28;20477;-83
2022/07/30 02:12:31;;;;;;;6.00;5.30;;;17.40;99.90;;;;;;5075998;28;20594;-82
2022/07/30 02:15:09;;;;;;;7.40;5.30;;;17.40;99.90;;;;;;5075647;28;20538;-83
2022/07/30 02:17:44;;;;;;;6.90;4.90;;;17.40;99.90;;;;;;5075587;28;20471;-82
2022/07/30 02:20:12;;;;;;;7.57;5.30;;;17.30;99.90;;;;;;5075980;28;20865;-84
2022/07/30 02:22:43;;;;;;;6.10;5.60;;;17.30;99.90;;;;;;5074573;28;20519;-83
2022/07/30 02:25:17;;;;;;;6.80;6.10;;;17.30;99.90;;;;;;5075390;28;20929;-82
2022/07/30 02:27:48;;;;;;;8.77;6.23;;;17.30;99.90;;;;;;5075622;28;20514;-83
2022/07/30 02:30:15;;;;;;;7.70;5.67;;;17.30;99.90;;;;;;5075264;28;21038;-85
2022/07/30 02:32:46;;;;;;;8.30;5.77;;;17.20;99.90;;;;;;5075185;28;20526;-82
2022/07/30 02:35:19;;;;;;;6.83;5.43;;;17.20;99.90;;;;;;5075745;28;20516;-84
2022/07/30 02:37:49;;;;;;;7.63;5.03;;;17.20;99.90;;;;;;5075851;28;20498;-83
2022/07/30 02:40:18;;;;;;;7.03;5.93;;;17.20;99.90;;;;;;5075385;28;20440;-83
2022/07/30 02:42:46;;;;;;;6.90;4.90;;;17.10;99.90;;;;;;5074758;28;20674;-82
2022/07/30 02:45:17;;;;;;;5.83;4.93;;;17.10;99.90;;;;;;5074215;28;20463;-84
2022/07/30 02:47:48;;;;;;;6.57;5.30;;;17.10;99.90;;;;;;5075041;28;20480;-84
2022/07/30 02:50:17;;;;;;;6.80;5.27;;;17.10;99.90;;;;;;5075638;28;20532;-84
2022/07/30 02:52:45;;;;;;;7.30;5.70;;;17.10;99.90;;;;;;5074730;28;20531;-84
2022/07/30 02:55:13;;;;;;;9.93;4.93;;;17.10;99.90;;;;;;5074603;28;20497;-84
2022/07/30 02:57:42;;;;;;;11.87;5.20;;;17.00;99.90;;;;;;5076099;28;20479;-83
2022/07/30 03:00:11;;;;;;;6.80;5.23;;;17.00;99.90;;;;;;5088963;28;20567;-83
2022/07/30 03:02:40;;;;;;;8.37;5.60;;;16.90;99.90;;;;;;5075333;28;20490;-85
2022/07/30 03:05:09;;;;;;;8.17;6.30;;;16.90;99.90;;;;;;5081792;28;20480;-85
2022/07/30 03:07:38;;;;;;;8.13;5.20;;;16.90;99.90;;;;;;5080286;28;20515;-84
2022/07/30 03:10:06;;;;;;;9.93;5.50;;;16.90;99.90;;;;;;5081503;28;20475;-83
2022/07/30 03:12:34;;;;;;;9.40;6.50;;;16.90;99.90;;;;;;5081684;28;20443;-84
2022/07/30 03:15:02;;;;;;;11.60;6.13;;;16.90;99.90;;;;;;5081120;28;20508;-85
2022/07/30 03:17:34;;;;;;;8.07;6.10;;;16.90;99.90;;;;;;5079901;28;20482;-84
2022/07/30 03:20:04;;;;;;;10.87;5.50;;;16.90;99.90;;;;;;5080977;28;20475;-85
2022/07/30 03:22:35;;;;;;;7.70;6.77;;;16.90;99.90;;;;;;5080190;28;20455;-84
2022/07/30 03:25:04;;;;;;;8.70;5.83;;;16.80;99.90;;;;;;5079269;28;20447;-84
2022/07/30 03:27:31;;;;;;;9.67;6.70;;;16.80;99.90;;;;;;5080357;28;20455;-84
2022/07/30 03:30:01;;;;;;;8.73;6.93;;;16.80;99.90;;;;;;5079456;28;20454;-84
2022/07/30 03:32:28;;;;;;;11.47;7.30;;;16.80;99.90;;;;;;5079281;28;20534;-85
2022/07/30 03:34:56;;;;;;;7.87;6.53;;;16.80;99.90;;;;;;5079663;28;20456;-85
2022/07/30 03:37:24;;;;;;;9.07;6.20;;;16.80;99.90;;;;;;5078627;28;20529;-84
2022/07/30 03:39:54;;;;;;;8.00;6.40;;;16.70;99.90;;;;;;5078909;28;20533;-84
2022/07/30 03:42:21;;;;;;;9.97;6.67;;;16.70;99.90;;;;;;5078591;28;20451;-85
2022/07/30 03:44:50;;;;;;;7.97;6.23;;;16.70;99.90;;;;;;5078038;28;20992;-83
2022/07/30 03:47:18;;;;;;;8.30;6.23;;;16.70;99.90;;;;;;5080803;28;20451;-83
2022/07/30 03:49:45;;;;;;;8.03;5.47;;;16.70;99.90;;;;;;5081936;28;20511;-85
2022/07/30 03:52:13;;;;;;;7.20;5.73;;;16.70;99.90;;;;;;5079860;28;20493;-86
2022/07/30 03:54:40;;;;;;;8.47;6.50;;;16.70;99.90;;;;;;5078519;28;20458;-84
2022/07/30 03:57:08;;;;;;;8.40;6.90;;;16.60;99.90;;;;;;5078504;28;20451;-84
2022/07/30 03:59:35;;;;;;;7.57;5.80;;;16.60;99.90;;;;;;5079179;28;20486;-85
2022/07/30 04:02:03;;;;;;;7.23;5.80;;;16.60;99.90;;;;;;5079821;28;20486;-84
2022/07/30 04:04:30;;;;;;;7.37;6.43;;;16.60;99.90;;;;;;5077580;28;20496;-84
2022/07/30 04:06:57;;;;;;;8.13;6.43;;;16.60;99.90;;;;;;5078647;28;20493;-84
2022/07/30 04:09:24;;;;;;;8.43;7.00;;;16.60;99.90;;;;;;5078800;28;20481;-84
2022/07/30 04:11:51;;;;;;;8.90;6.67;;;16.60;99.90;;;;;;5078700;28;20549;-85
2022/07/30 04:14:19;;;;;;;7.10;6.37;;;16.60;99.90;;;;;;5076842;28;20532;-83
2022/07/30 04:16:50;;;;;;;7.67;6.60;;;16.50;99.90;;;;;;5078030;28;20462;-83
2022/07/30 04:19:36;;;;;;;7.30;6.43;;;16.60;99.90;;;;;;5082656;28;20478;-84
2022/07/30 04:22:04;;;;;;;9.93;6.30;;;16.60;99.90;;;;;;5082252;28;20481;-84
2022/07/30 04:24:32;;;;;;;10.47;6.77;;;16.50;99.90;;;;;;5081058;28;20577;-83
2022/07/30 04:27:00;;;;;;;7.90;6.87;;;16.50;99.90;;;;;;5081430;28;20451;-84
2022/07/30 04:29:28;;;;;;;9.90;8.30;;;16.50;99.90;;;;;;5081093;28;20467;-84
2022/07/30 04:31:56;;;;;;;10.57;7.50;;;16.60;99.90;;;;;;5083247;28;20458;-83
2022/07/30 04:34:22;;;;;;;9.27;7.73;;;16.60;99.90;;;;;;5079083;28;20480;-84
2022/07/30 04:36:49;;;;;;;9.20;7.37;;;16.60;99.90;;;;;;5078468;28;20526;-83
2022/07/30 04:39:16;;;;;;;8.33;7.20;;;16.60;99.90;;;;;;5078502;28;20479;-87
2022/07/30 04:41:43;;;;;;;12.17;8.40;;;16.70;99.90;;;;;;5078577;28;20486;-83
2022/07/30 04:44:10;;;;;;;9.77;7.90;;;16.70;99.90;;;;;;5076375;28;20570;-84
2022/07/30 04:46:38;;;;;;;12.53;8.83;;;16.70;99.90;;;;;;5063276;28;20486;-85
2022/07/30 04:49:05;;;;;;;11.10;9.03;;;16.80;99.90;;;;;;5061353;28;20499;-85
2022/07/30 04:51:34;;;;;;;10.60;8.40;;;16.80;99.90;;;;;;5063169;28;20451;-85
2022/07/30 04:54:02;;;;;;;11.03;8.70;;;16.90;99.90;;;;;;5063696;28;20483;-86
2022/07/30 04:56:32;;;;;;;9.30;7.70;;;16.90;99.90;;;;;;5070747;28;20485;-85
2022/07/30 04:59:00;;;;;;;10.70;8.87;;;17.00;99.90;;;;;;5081811;28;20553;-86
2022/07/30 05:01:32;;;;;;;11.50;10.10;;;17.00;99.90;;;;;;5081352;28;20451;-85
2022/07/30 05:04:02;;;;;;;13.30;8.20;;;17.10;99.90;;;;;;5074653;28;20472;-84
2022/07/30 05:06:30;;;;;;;11.27;9.10;;;17.20;99.90;;;;;;5078144;28;20480;-83
2022/07/30 05:08:57;;;;;;;11.00;9.60;;;17.20;99.90;;;;;;5091788;28;20483;-84
2022/07/30 05:11:24;;;;;;;12.80;9.63;;;17.30;99.90;;;;;;5094063;28;20449;-85
2022/07/30 05:13:51;;;;;;;25.23;13.53;;;17.30;99.90;;;;;;5093052;28;20445;-85
2022/07/30 05:16:18;;;;;;;24.07;17.47;;;17.30;99.90;;;;;;5093144;28;20451;-84
2022/07/30 05:18:45;;;;;;;28.90;19.90;;;17.30;99.90;;;;;;5088425;28;20469;-85
2022/07/30 05:21:13;;;;;;;24.50;17.20;;;17.30;99.90;;;;;;5083669;28;20455;-86
2022/07/30 05:23:40;;;;;;;25.00;16.77;;;17.40;99.90;;;;;;5080702;28;20524;-85
2022/07/30 05:26:07;;;;;;;28.10;18.03;;;17.40;99.90;;;;;;5086632;28;20543;-84
2022/07/30 05:28:34;;;;;;;28.30;19.20;;;17.60;99.90;;;;;;5085932;28;20459;-83
2022/07/30 05:31:00;;;;;;;30.53;18.77;;;17.60;99.90;;;;;;5084795;28;20492;-85
2022/07/30 05:33:27;;;;;;;39.77;24.93;;;17.60;99.90;;;;;;5083721;28;20455;-83
2022/07/30 05:35:54;;;;;;;33.10;20.90;;;17.60;99.90;;;;;;5085618;28;20448;-84
2022/07/30 05:38:22;;;;;;;34.67;21.83;;;17.50;99.90;;;;;;5084734;28;21028;-86
2022/07/30 05:40:50;;;;;;;33.20;22.17;;;17.60;99.90;;;;;;5084489;28;20461;-84
2022/07/30 05:43:17;;;;;;;39.27;22.17;;;17.60;99.90;;;;;;5082963;28;20594;-85
2022/07/30 05:45:44;;;;;;;37.03;22.23;;;17.70;99.90;;;;;;5083360;28;20473;-85
2022/07/30 05:48:11;;;;;;;38.97;26.13;;;17.80;99.90;;;;;;5083531;28;21027;-86
2022/07/30 05:50:38;;;;;;;31.57;22.93;;;17.70;99.90;;;;;;5080905;28;20457;-82
2022/07/30 05:53:05;;;;;;;35.83;22.63;;;17.70;99.90;;;;;;5078784;28;20487;-82
2022/07/30 05:55:33;;;;;;;38.17;26.03;;;17.70;99.90;;;;;;5079177;28;20537;-82
2022/07/30 05:58:00;;;;;;;29.17;20.30;;;17.60;99.90;;;;;;5063515;28;20839;-83
2022/07/30 06:00:27;;;;;;;42.70;27.70;;;17.80;99.90;;;;;;5079897;28;20525;-82
2022/07/30 06:02:53;;;;;;;53.17;33.03;;;17.70;99.90;;;;;;5077566;28;20930;-83
2022/07/30 06:05:21;;;;;;;45.00;32.13;;;17.70;99.90;;;;;;5078208;28;20673;-83
2022/07/30 06:07:48;;;;;;;51.53;34.60;;;17.70;99.90;;;;;;5078108;28;20490;-84
2022/07/30 06:10:14;;;;;;;58.83;34.83;;;17.70;99.90;;;;;;5077760;28;20455;-83
2022/07/30 06:12:43;;;;;;;51.17;35.10;;;17.80;99.90;;;;;;5079820;28;20884;-83
2022/07/30 06:15:10;;;;;;;55.17;34.63;;;17.90;99.90;;;;;;5080859;28;20453;-84
2022/07/30 06:17:42;;;;;;;47.00;34.07;;;17.80;99.90;;;;;;5081489;28;20959;-84
2022/07/30 06:20:10;;;;;;;42.27;30.63;;;17.90;99.90;;;;;;5081279;28;20457;-84
2022/07/30 06:22:37;;;;;;;53.50;33.90;;;18.00;99.90;;;;;;5080712;28;20481;-84
2022/07/30 06:25:05;;;;;;;53.73;35.30;;;18.00;99.90;;;;;;5080131;28;20521;-84
2022/07/30 06:27:33;;;;;;;53.20;32.40;;;18.10;99.90;;;;;;5077927;28;20455;-85
2022/07/30 06:30:01;;;;;;;48.57;32.30;;;18.30;99.90;;;;;;5077959;28;20456;-84
2022/07/30 06:32:28;;;;;;;50.13;33.30;;;18.40;99.90;;;;;;5078788;28;20485;-85
2022/07/30 06:34:55;;;;;;;52.13;36.03;;;18.30;99.90;;;;;;5087072;28;20942;-85
2022/07/30 06:37:22;;;;;;;51.53;36.90;;;18.40;99.90;;;;;;5078984;28;20462;-84
2022/07/30 06:39:49;;;;;;;47.77;34.57;;;18.30;99.90;;;;;;5077984;28;20826;-85
2022/07/30 06:42:16;;;;;;;55.23;39.87;;;18.30;99.90;;;;;;5076600;28;20455;-85
2022/07/30 06:44:43;;;;;;;49.33;32.87;;;18.40;99.90;;;;;;5075641;28;20584;-85
2022/07/30 06:47:11;;;;;;;54.07;40.80;;;18.50;99.90;;;;;;5077916;28;20507;-85
2022/07/30 06:49:39;;;;;;;64.17;43.00;;;18.50;99.90;;;;;;5077036;28;20564;-85
2022/07/30 06:52:06;;;;;;;59.93;41.70;;;18.40;99.90;;;;;;5077759;28;20466;-85
2022/07/30 06:54:33;;;;;;;54.60;39.60;;;18.40;99.90;;;;;;5076774;28;20456;-84
2022/07/30 06:57:00;;;;;;;68.60;47.57;;;18.40;99.90;;;;;;5078891;28;20490;-84
2022/07/30 06:59:27;;;;;;;62.70;42.60;;;18.30;99.90;;;;;;5079910;28;20516;-84
2022/07/30 07:01:54;;;;;;;61.47;41.90;;;18.30;99.90;;;;;;5080711;28;20508;-85
2022/07/30 07:04:22;;;;;;;56.77;38.40;;;18.40;99.90;;;;;;5077099;28;21051;-84
2022/07/30 07:06:49;;;;;;;44.70;37.03;;;18.50;99.90;;;;;;5080172;28;20452;-84
2022/07/30 07:09:16;;;;;;;54.37;38.37;;;18.50;99.90;;;;;;5074190;28;20501;-84
2022/07/30 07:11:43;;;;;;;49.30;37.23;;;18.70;99.90;;;;;;5063033;28;20466;-84
2022/07/30 07:14:10;;;;;;;51.90;38.80;;;18.70;99.90;;;;;;5067888;28;20459;-84
2022/07/30 07:16:37;;;;;;;48.00;35.83;;;18.70;99.90;;;;;;5075388;28;21012;-84
2022/07/30 07:19:04;;;;;;;53.00;38.33;;;18.80;99.90;;;;;;5074696;28;20520;-84
2022/07/30 07:21:32;;;;;;;51.40;38.03;;;18.80;99.90;;;;;;5078085;28;21012;-84
2022/07/30 07:24:01;;;;;;;42.83;33.07;;;18.90;99.90;;;;;;5078130;28;20574;-84
2022/07/30 07:26:31;;;;;;;46.20;33.77;;;18.90;99.90;;;;;;5075749;28;20459;-83
2022/07/30 07:28:58;;;;;;;41.87;32.67;;;18.80;99.90;;;;;;5077927;28;20473;-83
2022/07/30 07:31:25;;;;;;;46.33;33.90;;;18.90;99.90;;;;;;5078541;28;20451;-82
2022/07/30 07:33:53;;;;;;;39.17;29.10;;;18.90;99.90;;;;;;5076106;28;20469;-83
2022/07/30 07:36:20;;;;;;;36.70;30.10;;;19.10;99.90;;;;;;5078087;28;20489;-84
2022/07/30 07:38:48;;;;;;;32.33;26.70;;;19.10;99.90;;;;;;5077729;28;20537;-84
2022/07/30 07:41:15;;;;;;;34.70;28.00;;;19.20;99.90;;;;;;5077729;28;20515;-82
2022/07/30 07:43:42;;;;;;;37.77;30.10;;;19.20;99.90;;;;;;5085645;28;20543;-83
2022/07/30 07:46:11;;;;;;;35.17;26.57;;;19.10;99.90;;;;;;5077029;28;20887;-83
2022/07/30 07:48:40;;;;;;;35.63;27.60;;;19.10;99.90;;;;;;5071192;28;20489;-85
2022/07/30 07:51:07;;;;;;;36.60;27.13;;;19.00;99.90;;;;;;5070451;28;20453;-83
2022/07/30 07:53:34;;;;;;;37.80;28.13;;;19.00;99.90;;;;;;5071129;28;20910;-83
2022/07/30 07:56:07;;;;;;;34.67;27.07;;;18.90;99.90;;;;;;5071796;28;20533;-84
2022/07/30 07:58:34;;;;;;;37.13;28.73;;;19.00;99.90;;;;;;5066006;28;20470;-83
2022/07/30 08:01:01;;;;;;;42.80;32.33;;;18.90;99.90;;;;;;5068711;28;20884;-83
2022/07/30 08:03:28;;;;;;;43.13;35.13;;;19.00;99.90;;;;;;5068918;28;20843;-83
2022/07/30 08:05:57;;;;;;;49.37;37.40;;;19.00;99.90;;;;;;5070434;28;20551;-83
2022/07/30 08:08:24;;;;;;;48.23;35.33;;;19.00;99.90;;;;;;5071561;28;20569;-83
2022/07/30 08:10:51;;;;;;;46.40;34.30;;;19.10;99.90;;;;;;5071136;28;20446;-83
2022/07/30 08:13:20;;;;;;;44.17;33.20;;;19.20;99.90;;;;;;5068810;28;20542;-84
2022/07/30 08:15:46;;;;;;;39.53;29.43;;;19.40;99.90;;;;;;5069955;28;20538;-84
2022/07/30 08:18:13;;;;;;;49.00;34.57;;;19.70;99.90;;;;;;5069821;28;20474;-82
2022/07/30 08:20:40;;;;;;;48.30;35.97;;;19.80;99.90;;;;;;5076587;28;20493;-83
2022/07/30 08:23:07;;;;;;;36.97;28.80;;;19.90;99.90;;;;;;5070278;28;20575;-83
2022/07/30 08:25:34;;;;;;;42.00;29.53;;;20.20;99.90;;;;;;5080289;28;20517;-82
2022/07/30 08:28:02;;;;;;;39.93;31.47;;;20.20;99.90;;;;;;5076614;28;20561;-85
2022/07/30 08:30:30;;;;;;;44.80;33.77;;;20.20;99.90;;;;;;5076086;28;20494;-83
2022/07/30 08:32:57;;;;;;;36.70;29.60;;;20.20;99.90;;;;;;5075155;28;20459;-84
2022/07/30 08:35:24;;;;;;;47.50;34.40;;;20.20;99.90;;;;;;5074705;28;20573;-84
2022/07/30 08:37:51;;;;;;;38.80;32.10;;;19.90;99.90;;;;;;5072208;28;20470;-84
2022/07/30 08:40:19;;;;;;;36.47;29.10;;;19.80;99.90;;;;;;5071535;28;20546;-83
2022/07/30 08:42:46;;;;;;;32.63;25.93;;;20.20;99.90;;;;;;5072331;28;20558;-84
2022/07/30 08:45:16;;;;;;;32.87;27.40;;;20.50;99.90;;;;;;5072822;28;21006;-84
2022/07/30 08:47:48;;;;;;;33.73;24.97;;;20.60;99.90;;;;;;5066905;28;20485;-84
2022/07/30 08:50:18;;;;;;;32.17;25.27;;;20.80;99.90;;;;;;5068232;28;20479;-82
2022/07/30 08:52:47;;;;;;;26.87;21.60;;;21.00;99.90;;;;;;5063140;28;20500;-83
2022/07/30 08:55:18;;;;;;;33.23;23.27;;;21.10;99.90;;;;;;5068983;28;20448;-86
2022/07/30 08:57:48;;;;;;;27.67;20.87;;;21.10;99.90;;;;;;5069263;28;21063;-84
2022/07/30 09:00:16;;;;;;;27.70;21.07;;;21.50;99.90;;;;;;5066856;28;20452;-84
2022/07/30 09:02:45;;;;;;;29.40;21.57;;;21.50;99.90;;;;;;5066580;28;20458;-86
2022/07/30 09:05:12;;;;;;;36.40;24.00;;;21.70;99.90;;;;;;5073159;28;20499;-84
2022/07/30 09:07:40;;;;;;;28.97;18.43;;;21.80;99.90;;;;;;5074826;28;20494;-84
2022/07/30 09:10:09;;;;;;;25.47;18.07;;;21.90;99.90;;;;;;5073602;28;20490;-84
2022/07/30 09:12:38;;;;;;;22.73;17.63;;;21.90;99.90;;;;;;5073774;28;20478;-83
2022/07/30 09:15:11;;;;;;;20.60;14.37;;;22.00;99.90;;;;;;5073659;28;20455;-85
2022/07/30 09:17:51;;;;;;;19.20;14.73;;;22.50;99.90;;;;;;5070068;28;20462;-81
2022/07/30 09:20:19;;;;;;;17.27;12.37;;;22.50;99.90;;;;;;5072637;28;20522;-80
2022/07/30 09:22:50;;;;;;;18.50;12.83;;;22.80;99.90;;;;;;5072139;28;20455;-81
2022/07/30 09:25:33;;;;;;;14.17;10.77;;;23.00;99.90;;;;;;5064285;28;20499;-82
2022/07/30 09:28:00;;;;;;;22.30;13.47;;;23.30;99.90;;;;;;5072077;28;20910;-81
2022/07/30 09:30:42;;;;;;;22.97;17.47;;;23.30;99.90;;;;;;5069465;28;20936;-82
2022/07/30 09:33:11;;;;;;;31.10;21.67;;;23.30;99.90;;;;;;5058651;28;20510;-79
2022/07/30 09:35:38;;;;;;;38.17;24.23;;;23.20;99.90;;;;;;5072685;28;20452;-81
2022/07/30 09:38:06;;;;;;;31.63;21.83;;;23.30;99.90;;;;;;5068452;28;20499;-80
2022/07/30 09:40:33;;;;;;;25.30;17.70;;;23.30;99.90;;;;;;5069679;28;20455;-80
2022/07/30 09:43:05;;;;;;;26.17;17.27;;;23.50;99.90;;;;;;5072486;28;20443;-78
2022/07/30 09:45:32;;;;;;;25.37;20.20;;;23.80;99.90;;;;;;5073332;28;20479;-80
2022/07/30 09:48:00;;;;;;;23.73;17.10;;;24.10;99.90;;;;;;5064414;28;20508;-83
2022/07/30 09:50:28;;;;;;;22.33;15.90;;;24.20;99.90;;;;;;5069076;28;20443;-81
2022/07/30 09:53:05;;;;;;;15.53;12.90;;;24.20;99.90;;;;;;5054030;28;21027;-82
2022/07/30 09:55:33;;;;;;;16.43;12.13;;;24.70;99.90;;;;;;5064958;28;20500;-82
2022/07/30 09:58:01;;;;;;;12.13;10.70;;;24.70;99.90;;;;;;5071100;28;20994;-81
2022/07/30 10:00:38;;;;;;;18.40;13.23;;;24.60;99.90;;;;;;5066506;28;20535;-83
2022/07/30 10:03:16;;;;;;;15.43;11.40;;;24.70;99.90;;;;;;5064445;28;20454;-80
2022/07/30 10:05:52;;;;;;;19.07;12.70;;;24.90;99.90;;;;;;5074712;28;20561;-82
2022/07/30 10:08:19;;;;;;;13.87;10.20;;;25.20;99.90;;;;;;5072756;28;20470;-82
2022/07/30 10:10:48;;;;;;;15.63;12.67;;;25.40;99.90;;;;;;5072517;28;20506;-80
2022/07/30 10:13:18;;;;;;;19.27;14.33;;;25.50;99.90;;;;;;5071444;28;20458;-82
2022/07/30 10:15:45;;;;;;;17.03;11.80;;;25.60;99.90;;;;;;5072821;28;20443;-81
2022/07/30 10:18:13;;;;;;;14.10;11.10;;;25.60;99.90;;;;;;5075314;28;20467;-81
2022/07/30 10:20:42;;;;;;;14.43;8.57;;;25.20;99.90;;;;;;5076041;28;20447;-81
2022/07/30 10:23:12;;;;;;;14.50;10.60;;;25.50;99.90;;;;;;5075379;28;20443;-82
2022/07/30 10:25:39;;;;;;;15.80;9.17;;;25.50;99.90;;;;;;5074333;28;20478;-82
2022/07/30 10:28:06;;;;;;;12.67;9.50;;;25.50;99.90;;;;;;5075886;28;20469;-82
2022/07/30 10:30:34;;;;;;;13.83;9.17;;;25.80;99.90;;;;;;5075152;28;20788;-81
2022/07/30 10:33:02;;;;;;;11.00;9.90;;;26.20;99.90;;;;;;5074721;28;20902;-81
2022/07/30 10:35:31;;;;;;;14.30;10.00;;;26.30;99.90;;;;;;5073755;28;20486;-80
2022/07/30 10:37:59;;;;;;;12.93;8.80;;;26.50;99.90;;;;;;5069022;28;20464;-80
2022/07/30 10:40:33;;;;;;;8.20;6.50;;;26.60;99.90;;;;;;5074125;28;20470;-81
2022/07/30 10:43:22;;;;;;;9.00;6.37;;;26.10;99.90;;;;;;5082165;28;20462;-81
2022/07/30 10:45:59;;;;;;;9.33;6.40;;;26.40;99.90;;;;;;5084094;28;20912;-83
2022/07/30 10:48:26;;;;;;;11.40;7.40;;;26.40;99.90;;;;;;5082150;28;21056;-81
2022/07/30 10:50:55;;;;;;;8.43;6.80;;;26.60;99.90;;;;;;5085468;28;20493;-82
2022/07/30 10:53:37;;;;;;;7.47;5.00;;;26.60;99.90;;;;;;5085059;28;20486;-82
2022/07/30 10:56:15;;;;;;;11.70;7.83;;;27.00;99.90;;;;;;5085677;28;20478;-83
2022/07/30 10:59:04;;;;;;;8.20;6.67;;;27.00;99.90;;;;;;5084885;28;21075;-84
2022/07/30 11:02:07;;;;;;;8.33;6.73;;;27.10;99.90;;;;;;5085684;28;20435;-83
2022/07/30 11:04:36;;;;;;;6.57;5.87;;;27.40;99.90;;;;;;5084682;28;20450;-82
2022/07/30 11:07:28;;;;;;;6.50;5.43;;;27.80;99.90;;;;;;5084595;28;20478;-82
2022/07/30 11:09:56;;;;;;;9.93;7.13;;;27.90;99.90;;;;;;5084459;28;20454;-83
2022/07/30 11:12:55;;;;;;;7.27;5.20;;;27.80;99.90;;;;;;5085112;28;20467;-82
2022/07/30 11:15:23;;;;;;;8.60;5.17;;;28.00;99.90;;;;;;5085077;28;20447;-83
2022/07/30 11:18:02;;;;;;;9.20;4.53;;;28.40;99.90;;;;;;5085228;28;20462;-82
2022/07/30 11:20:30;;;;;;;5.37;4.70;;;28.50;99.90;;;;;;5084464;28;20482;-83
2022/07/30 11:23:33;;;;;;;6.80;4.83;;;28.30;99.90;;;;;;5082286;28;20534;-83
2022/07/30 11:25:59;;;;;;;6.80;4.00;;;28.20;99.90;;;;;;5074212;28;20520;-82
2022/07/30 11:28:39;;;;;;;7.03;4.00;;;28.40;99.90;;;;;;5074893;28;20471;-83
2022/07/30 11:31:34;;;;;;;5.53;4.40;;;28.50;99.90;;;;;;5075179;28;20443;-83
2022/07/30 11:34:27;;;;;;;4.70;3.80;;;28.30;99.90;;;;;;5068345;28;20457;-83
2022/07/30 11:37:04;;;;;;;7.27;3.80;;;28.40;99.90;;;;;;5075967;28;20943;-83
2022/07/30 11:40:06;;;;;;;6.40;3.60;;;28.40;99.90;;;;;;5075372;28;20493;-83
2022/07/30 11:42:34;;;;;;;4.93;3.50;;;28.60;99.90;;;;;;5084179;28;20481;-83
2022/07/30 11:45:25;;;;;;;5.70;3.77;;;28.90;99.90;;;;;;5085560;28;20482;-83
2022/07/30 11:47:53;;;;;;;4.00;3.13;;;28.90;97.80;;;;;;5087893;28;20482;-84
2022/07/30 11:50:21;;;;;;;5.10;3.03;;;28.90;99.90;;;;;;5090965;28;20439;-83
2022/07/30 11:52:49;;;;;;;7.37;4.00;;;29.10;99.90;;;;;;5083401;28;20935;-83
2022/07/30 11:55:24;;;;;;;5.37;3.20;;;29.30;99.90;;;;;;5081206;28;20457;-85
2022/07/30 11:57:51;;;;;;;6.57;2.70;;;29.00;95.90;;;;;;5070848;28;20478;-83
2022/07/30 12:00:18;;;;;;;6.90;4.47;;;29.30;94.00;;;;;;5059698;28;20455;-84
2022/07/30 12:02:47;;;;;;;9.40;3.60;;;28.80;92.60;;;;;;5061075;28;20990;-83
2022/07/30 12:05:14;;;;;;;7.73;3.30;;;28.30;92.20;;;;;;5068242;28;20451;-85
2022/07/30 12:07:41;;;;;;;5.93;2.90;;;29.30;99.90;;;;;;5072583;28;20552;-83
2022/07/30 12:10:16;;;;;;;7.87;3.23;;;30.00;99.90;;;;;;5072574;28;20459;-85
2022/07/30 12:12:43;;;;;;;5.27;2.80;;;29.90;93.80;;;;;;5077262;28;20898;-84
2022/07/30 12:15:11;;;;;;;3.70;2.20;;;29.90;96.80;;;;;;5074941;28;20517;-84
2022/07/30 12:17:42;;;;;;;5.57;2.47;;;30.40;93.20;;;;;;5070624;28;20471;-84
2022/07/30 12:20:19;;;;;;;6.40;2.63;;;30.40;88.90;;;;;;5076376;28;20485;-84
2022/07/30 12:22:46;;;;;;;4.97;3.03;;;30.40;89.90;;;;;;5075055;28;20443;-84
2022/07/30 12:25:14;;;;;;;5.37;2.87;;;30.60;90.20;;;;;;5076697;28;20534;-84
2022/07/30 12:27:46;;;;;;;5.10;2.60;;;31.20;92.70;;;;;;5072187;28;20464;-84
2022/07/30 12:30:14;;;;;;;4.50;2.70;;;31.00;91.10;;;;;;5067538;28;20478;-84
2022/07/30 12:32:41;;;;;;;5.50;2.27;;;30.80;89.10;;;;;;5075668;28;20487;-83
2022/07/30 12:35:09;;;;;;;9.80;3.13;;;30.60;91.00;;;;;;5074738;28;20451;-82
2022/07/30 12:37:37;;;;;;;7.77;3.67;;;30.50;81.50;;;;;;5074128;28;20982;-82
2022/07/30 12:40:10;;;;;;;10.23;3.20;;;30.10;85.40;;;;;;5075300;28;20550;-82
2022/07/30 12:42:37;;;;;;;8.10;3.17;;;29.90;81.60;;;;;;5065390;28;20896;-83
2022/07/30 12:45:25;;;;;;;5.83;3.00;;;30.20;91.00;;;;;;5072897;28;20465;-83
2022/07/30 12:47:52;;;;;;;5.33;2.47;;;29.90;81.00;;;;;;5070638;28;20503;-85
2022/07/30 12:50:18;;;;;;;5.80;2.50;;;30.00;93.60;;;;;;5074045;28;20479;-84